createdAt,value
2023-03-30T00:01:02.733Z,60.83
2023-03-30T00:03:30.682Z,60.88
2023-03-30T00:06:03.900Z,61.10
2023-03-30T00:08:33.505Z,61.96
2023-03-30T00:11:10.301Z,61.88
2023-03-30T00:13:38.513Z,61.83
2023-03-30T00:16:08.554Z,61.69
2023-03-30T00:18:36.879Z,61.64
2023-03-30T00:21:05.420Z,62.04
2023-03-30T00:23:33.716Z,62.07
2023-03-30T00:26:01.530Z,62.43
2023-03-30T00:28:31.108Z,63.02
2023-03-30T00:30:59.253Z,62.94
2023-03-30T00:33:41.556Z,63.12
2023-03-30T00:36:12.925Z,62.95
2023-03-30T00:38:40.771Z,63.27
2023-03-30T00:41:09.251Z,63.86
2023-03-30T00:44:02.120Z,63.73
2023-03-30T00:46:31.306Z,63.77
2023-03-30T00:49:05.126Z,64.75
2023-03-30T00:51:36.401Z,64.59
2023-03-30T00:54:09.382Z,64.45
2023-03-30T00:56:36.885Z,64.64
2023-03-30T00:59:04.600Z,64.93
2023-03-30T01:01:38.617Z,65.74
2023-03-30T01:04:08.335Z,65.77
2023-03-30T01:06:40.311Z,66.07
2023-03-30T01:09:08.629Z,66.21
2023-03-30T01:11:37.324Z,66.03
2023-03-30T01:14:08.026Z,67.12
2023-03-30T01:16:54.256Z,67.45
2023-03-30T01:19:46.442Z,67.08
2023-03-30T01:22:59.948Z,66.74
2023-03-30T01:25:52.274Z,66.68
2023-03-30T01:28:36.481Z,66.79
2023-03-30T01:31:42.142Z,67.34
2023-03-30T01:34:28.112Z,68.38
2023-03-30T01:37:08.370Z,68.97
2023-03-30T01:39:55.774Z,69.97
2023-03-30T01:43:01.695Z,70.16
2023-03-30T01:45:40.101Z,69.91
2023-03-30T01:48:17.139Z,69.35
2023-03-30T01:50:53.946Z,70.53
2023-03-30T01:53:47.737Z,70.87
2023-03-30T01:56:33.921Z,70.26
2023-03-30T01:59:13.942Z,70.99
2023-03-30T02:01:43.450Z,70.79
2023-03-30T02:04:12.388Z,70.96
2023-03-30T02:06:59.763Z,70.91
2023-03-30T02:09:29.773Z,71.19
2023-03-30T02:11:57.645Z,70.67
2023-03-30T02:14:31.231Z,70.57
2023-03-30T02:17:18.673Z,70.25
2023-03-30T02:19:47.578Z,70.71
2023-03-30T02:22:18.951Z,71.86
2023-03-30T02:24:50.196Z,72.62
2023-03-30T02:27:18.695Z,72.13
2023-03-30T02:29:49.287Z,72.27
2023-03-30T02:32:24.224Z,72.65
2023-03-30T02:35:18.981Z,72.74
2023-03-30T02:38:17.169Z,72.84
2023-03-30T02:40:55.845Z,73.04
2023-03-30T02:43:26.558Z,73.45
2023-03-30T02:46:04.159Z,73.28
2023-03-30T02:48:52.789Z,73.34
2023-03-30T02:51:35.384Z,74.21
2023-03-30T02:54:59.370Z,74.46
2023-03-30T02:58:19.990Z,75.15
2023-03-30T03:00:56.260Z,74.91
2023-03-30T03:03:44.153Z,75.06
2023-03-30T03:06:14.726Z,74.48
2023-03-30T03:08:48.136Z,74.66
2023-03-30T03:11:22.722Z,74.96
2023-03-30T03:13:50.416Z,74.70
2023-03-30T03:16:18.799Z,74.20
2023-03-30T03:19:03.749Z,74.37
2023-03-30T03:21:31.087Z,74.29
2023-03-30T03:23:58.390Z,74.69
2023-03-30T03:26:35.791Z,74.77
2023-03-30T03:29:03.567Z,75.39
2023-03-30T03:31:31.228Z,76.38
2023-03-30T03:33:59.555Z,76.56
2023-03-30T03:36:45.291Z,76.65
2023-03-30T03:39:13.312Z,76.69
2023-03-30T03:41:41.058Z,76.86
2023-03-30T03:44:08.333Z,78.18
2023-03-30T03:46:35.846Z,78.99
2023-03-30T03:49:03.522Z,79.32
2023-03-30T03:51:32.888Z,78.73
2023-03-30T03:54:00.741Z,78.51
2023-03-30T03:56:28.285Z,78.08
2023-03-30T03:58:56.631Z,78.04
2023-03-30T04:01:24.010Z,78.39
2023-03-30T04:03:51.294Z,79.54
2023-03-30T04:06:18.592Z,79.24
2023-03-30T04:08:45.867Z,79.03
2023-03-30T04:11:24.703Z,78.41
2023-03-30T04:14:12.333Z,78.29
2023-03-30T04:16:59.435Z,78.35
2023-03-30T04:19:36.166Z,78.74
2023-03-30T04:22:34.364Z,79.49
2023-03-30T04:25:32.868Z,78.73
2023-03-30T04:28:29.637Z,78.64
2023-03-30T04:31:10.661Z,78.65
2023-03-30T04:33:52.040Z,78.92
2023-03-30T04:36:43.448Z,78.91
2023-03-30T04:39:37.396Z,79.34
2023-03-30T04:42:15.661Z,79.79
2023-03-30T04:44:58.652Z,78.53
2023-03-30T04:47:46.035Z,78.37
2023-03-30T04:51:07.450Z,78.77
2023-03-30T04:53:57.513Z,78.70
2023-03-30T04:56:43.564Z,78.32
2023-03-30T04:59:29.465Z,78.88
2023-03-30T05:02:05.642Z,78.25
2023-03-30T05:04:43.874Z,78.73
2023-03-30T05:07:29.859Z,78.89
2023-03-30T05:10:15.755Z,78.48
2023-03-30T05:13:02.820Z,78.04
2023-03-30T05:15:54.750Z,77.72
2023-03-30T05:18:28.285Z,78.41
2023-03-30T05:21:15.991Z,79.14
2023-03-30T05:24:13.342Z,79.74
2023-03-30T05:26:57.920Z,80.67
2023-03-30T05:29:51.054Z,79.51
2023-03-30T05:32:43.570Z,79.01
2023-03-30T05:35:33.736Z,78.93
2023-03-30T05:38:14.655Z,79.45
2023-03-30T05:41:07.858Z,78.80
2023-03-30T05:43:55.667Z,78.45
2023-03-30T05:46:34.260Z,78.41
2023-03-30T05:49:17.413Z,77.77
2023-03-30T05:51:53.698Z,77.71
2023-03-30T05:54:37.281Z,78.31
2023-03-30T05:57:24.900Z,78.13
2023-03-30T06:00:07.930Z,78.20
2023-03-30T06:02:53.441Z,78.53
2023-03-30T06:05:24.463Z,78.75
2023-03-30T06:07:51.878Z,78.39
2023-03-30T06:10:19.316Z,77.34
2023-03-30T06:12:48.046Z,77.84
2023-03-30T06:15:35.638Z,78.71
2023-03-30T06:18:07.281Z,78.72
2023-03-30T06:20:37.846Z,78.92
2023-03-30T06:26:09.360Z,80.25
2023-03-30T06:28:38.245Z,79.73
2023-03-30T06:31:10.767Z,79.74
2023-03-30T06:33:41.563Z,79.50
2023-03-30T06:36:14.360Z,79.09
2023-03-30T06:38:45.936Z,79.90
2023-03-30T06:41:16.433Z,79.17
2023-03-30T06:43:47.560Z,78.61
2023-03-30T06:46:16.656Z,78.61
2023-03-30T06:48:46.990Z,79.24
2023-03-30T06:51:37.822Z,78.46
2023-03-30T06:54:07.034Z,78.75
2023-03-30T06:56:34.717Z,79.52
2023-03-30T06:59:10.443Z,79.51
2023-03-30T07:02:16.727Z,79.78
2023-03-30T07:05:01.492Z,80.46
2023-03-30T07:07:36.684Z,79.69
2023-03-30T07:10:10.207Z,79.11
2023-03-30T07:12:38.417Z,79.74
2023-03-30T07:15:10.026Z,79.50
2023-03-30T07:17:37.691Z,79.33
2023-03-30T07:20:08.306Z,78.93
2023-03-30T07:22:47.726Z,78.46
2023-03-30T07:25:16.509Z,78.19
2023-03-30T07:27:43.920Z,77.76
2023-03-30T07:30:21.303Z,76.92
2023-03-30T07:32:52.649Z,77.14
2023-03-30T07:35:20.551Z,76.22
2023-03-30T07:37:50.618Z,76.17
2023-03-30T07:40:20.083Z,76.02
2023-03-30T07:42:48.192Z,75.76
2023-03-30T07:45:16.667Z,76.04
2023-03-30T07:47:45.855Z,75.37
2023-03-30T07:50:13.363Z,75.18
2023-03-30T07:52:40.856Z,75.08
2023-03-30T07:55:11.081Z,74.40
2023-03-30T07:57:44.222Z,73.51
2023-03-30T08:00:14.520Z,73.13
2023-03-30T08:03:02.045Z,72.71
2023-03-30T08:05:30.556Z,71.82
2023-03-30T08:08:27.822Z,71.21
2023-03-30T08:10:55.591Z,71.49
2023-03-30T08:13:24.646Z,71.91
2023-03-30T08:15:54.327Z,73.18
2023-03-30T08:18:21.966Z,72.67
2023-03-30T08:20:51.940Z,72.52
2023-03-30T08:23:26.739Z,69.16
2023-03-30T08:25:58.961Z,69.36
2023-03-30T08:28:26.856Z,69.41
2023-03-30T08:30:54.739Z,69.22
2023-03-30T08:33:24.321Z,68.67
2023-03-30T08:35:52.630Z,68.75
2023-03-30T08:38:20.070Z,69.00
2023-03-30T08:40:49.386Z,68.59
2023-03-30T08:43:32.062Z,68.36
2023-03-30T08:46:01.715Z,68.30
2023-03-30T08:48:34.052Z,67.89
2023-03-30T08:51:14.795Z,68.34
2023-03-30T08:53:42.366Z,67.87
2023-03-30T08:56:46.283Z,67.95
2023-03-30T08:59:35.634Z,67.52
2023-03-30T09:02:11.942Z,68.11
2023-03-30T09:05:08.470Z,68.75
2023-03-30T09:07:55.013Z,68.70
2023-03-30T09:10:24.366Z,68.74
2023-03-30T09:13:01.768Z,69.10
2023-03-30T09:15:36.079Z,68.67
2023-03-30T09:18:29.314Z,68.83
2023-03-30T09:20:59.726Z,69.15
2023-03-30T09:24:02.868Z,70.31
2023-03-30T09:26:48.203Z,69.17
2023-03-30T09:29:24.844Z,69.62
2023-03-30T09:32:06.579Z,69.78
2023-03-30T09:34:56.792Z,69.81
2023-03-30T09:37:24.971Z,69.99
2023-03-30T09:39:52.342Z,69.98
2023-03-30T09:42:34.149Z,69.86
2023-03-30T09:45:25.397Z,69.76
2023-03-30T09:47:52.718Z,69.20
2023-03-30T09:50:26.858Z,69.59
2023-03-30T09:53:00.915Z,70.08
2023-03-30T09:55:32.861Z,70.48
2023-03-30T09:58:18.700Z,69.92
2023-03-30T10:01:00.724Z,69.77
2023-03-30T10:03:28.342Z,70.17
2023-03-30T10:06:02.112Z,69.48
2023-03-30T10:08:30.381Z,69.58
2023-03-30T10:10:59.667Z,69.69
2023-03-30T10:13:37.457Z,69.28
2023-03-30T10:16:08.483Z,69.39
2023-03-30T10:18:44.588Z,68.73
2023-03-30T10:21:19.209Z,68.34
2023-03-30T10:24:01.693Z,67.70
2023-03-30T10:26:30.660Z,68.02
2023-03-30T10:29:07.430Z,68.22
2023-03-30T10:31:37.591Z,68.71
2023-03-30T10:34:18.802Z,67.96
2023-03-30T10:36:50.173Z,68.86
2023-03-30T10:39:27.786Z,68.69
2023-03-30T10:41:59.670Z,68.60
2023-03-30T10:44:32.362Z,68.40
2023-03-30T10:47:51.204Z,67.75
2023-03-30T10:50:56.448Z,66.58
2023-03-30T10:53:40.633Z,65.69
2023-03-30T10:56:23.323Z,64.84
2023-03-30T10:59:26.670Z,64.97
2023-03-30T11:02:17.637Z,66.21
2023-03-30T11:05:14.430Z,66.86
2023-03-30T11:07:47.575Z,67.11
2023-03-30T11:10:20.887Z,66.59
2023-03-30T11:12:56.929Z,67.14
2023-03-30T11:15:37.639Z,66.91
2023-03-30T11:18:21.922Z,66.59
2023-03-30T11:21:01.329Z,65.80
2023-03-30T11:23:47.657Z,66.68
2023-03-30T11:26:36.159Z,67.15
2023-03-30T11:29:18.485Z,66.88
2023-03-30T11:31:51.975Z,65.84
2023-03-30T11:34:35.800Z,65.58
2023-03-30T11:37:35.602Z,64.69
2023-03-30T11:40:19.961Z,65.37
2023-03-30T11:42:47.844Z,65.48
2023-03-30T11:46:04.491Z,63.72
2023-03-30T11:48:44.009Z,63.59
2023-03-30T11:51:18.868Z,64.64
2023-03-30T11:54:13.296Z,64.72
2023-03-30T11:56:49.780Z,62.84
2023-03-30T11:59:22.440Z,62.65
2023-03-30T12:02:06.553Z,62.85
2023-03-30T12:04:52.811Z,63.43
2023-03-30T12:07:44.593Z,63.41
2023-03-30T12:10:21.242Z,63.15
2023-03-30T12:12:51.979Z,62.98
2023-03-30T12:15:42.927Z,62.78
2023-03-30T12:18:34.559Z,62.93
2023-03-30T12:21:01.963Z,61.24
2023-03-30T12:26:49.109Z,61.16
2023-03-30T12:32:30.980Z,61.19
2023-03-30T12:34:58.851Z,60.28
2023-03-30T12:37:36.174Z,60.34
2023-03-30T12:40:22.717Z,59.98
2023-03-30T12:43:10.950Z,59.10
2023-03-30T12:46:14.115Z,59.00
2023-03-30T12:48:57.362Z,59.13
2023-03-30T12:51:54.839Z,59.70
2023-03-30T12:54:49.179Z,60.30
2023-03-30T12:57:34.961Z,59.74
2023-03-30T13:00:48.064Z,59.78
2023-03-30T13:03:29.443Z,60.13
2023-03-30T13:05:59.049Z,59.89
2023-03-30T13:08:35.950Z,59.61
2023-03-30T13:11:14.141Z,59.14
2023-03-30T13:14:14.346Z,59.07
2023-03-30T13:16:51.449Z,59.06
2023-03-30T13:19:32.538Z,58.44
2023-03-30T13:22:03.371Z,59.15
2023-03-30T13:24:30.813Z,59.48
2023-03-30T13:27:16.962Z,59.37
2023-03-30T13:30:08.782Z,59.09
2023-03-30T13:33:16.848Z,59.27
2023-03-30T13:36:06.398Z,58.61
2023-03-30T13:38:40.387Z,58.71
2023-03-30T13:41:22.521Z,58.94
2023-03-30T13:43:58.959Z,58.60
2023-03-30T13:46:40.938Z,58.87
2023-03-30T13:49:51.698Z,58.79
2023-03-30T13:52:32.341Z,58.61
2023-03-30T13:55:02.027Z,59.01
2023-03-30T13:57:36.864Z,59.59
2023-03-30T14:00:22.425Z,59.33
2023-03-30T14:02:49.823Z,59.46
2023-03-30T14:05:24.180Z,59.76
2023-03-30T14:07:59.008Z,59.95
2023-03-30T14:10:27.375Z,59.81
2023-03-30T14:12:56.947Z,59.95
2023-03-30T14:15:34.958Z,60.01
2023-03-30T14:18:04.681Z,59.73
2023-03-30T14:20:46.882Z,59.94
2023-03-30T14:23:36.455Z,60.36
2023-03-30T14:26:13.107Z,60.04
2023-03-30T14:28:42.597Z,59.72
2023-03-30T14:31:19.038Z,60.18
2023-03-30T14:33:47.453Z,60.89
2023-03-30T14:36:18.307Z,60.89
2023-03-30T14:38:49.093Z,60.68
2023-03-30T14:41:24.971Z,61.27
2023-03-30T14:44:07.629Z,61.32
2023-03-30T14:46:43.340Z,61.20
2023-03-30T14:49:31.888Z,60.80
2023-03-30T14:52:10.079Z,61.44
2023-03-30T14:54:38.558Z,61.14
2023-03-30T14:57:08.977Z,60.79
2023-03-30T14:59:47.335Z,60.24
2023-03-30T15:02:21.165Z,60.16
2023-03-30T15:04:50.625Z,60.68
2023-03-30T15:07:20.829Z,61.22
2023-03-30T15:09:54.580Z,60.93
2023-03-30T15:12:44.601Z,61.34
2023-03-30T15:15:15.657Z,61.35
2023-03-30T15:17:50.002Z,61.29
2023-03-30T15:20:18.626Z,60.93
2023-03-30T15:22:50.232Z,61.26
2023-03-30T15:25:20.700Z,61.42
2023-03-30T15:28:09.571Z,61.10
2023-03-30T15:30:39.865Z,61.33
2023-03-30T15:33:19.849Z,61.70
2023-03-30T15:35:50.639Z,61.43
2023-03-30T15:38:19.271Z,61.69
2023-03-30T15:40:52.750Z,61.28
2023-03-30T15:43:22.716Z,61.63
2023-03-30T15:45:57.453Z,61.90
2023-03-30T15:48:32.005Z,61.80
2023-03-30T15:51:33.229Z,62.31
2023-03-30T15:54:03.713Z,62.29
2023-03-30T15:56:39.886Z,62.26
2023-03-30T15:59:16.029Z,62.88
2023-03-30T16:01:54.016Z,62.96
2023-03-30T16:04:24.354Z,62.18
2023-03-30T16:06:52.872Z,62.12
2023-03-30T16:09:20.282Z,62.66
2023-03-30T16:11:47.709Z,63.26
2023-03-30T16:14:18.233Z,63.26
2023-03-30T16:16:46.077Z,63.33
2023-03-30T16:19:17.402Z,63.72
2023-03-30T16:21:45.544Z,63.24
2023-03-30T16:24:13.297Z,63.67
2023-03-30T16:26:41.291Z,64.01
2023-03-30T16:29:35.083Z,64.17
2023-03-30T16:32:03.133Z,64.40
2023-03-30T16:34:30.867Z,64.65
2023-03-30T16:36:58.276Z,64.26
2023-03-30T16:39:27.934Z,64.33
2023-03-30T16:41:56.035Z,64.26
2023-03-30T16:44:24.804Z,64.34
2023-03-30T16:46:53.051Z,64.78
2023-03-30T16:49:23.517Z,65.16
2023-03-30T16:51:55.087Z,64.62
2023-03-30T16:54:31.956Z,65.01
2023-03-30T16:57:03.076Z,65.55
2023-03-30T16:59:32.154Z,65.33
2023-03-30T17:02:00.165Z,65.59
2023-03-30T17:04:27.932Z,65.58
2023-03-30T17:06:55.764Z,65.05
2023-03-30T17:09:23.518Z,64.70
2023-03-30T17:11:51.138Z,65.30
2023-03-30T17:14:20.222Z,65.61
2023-03-30T17:16:47.864Z,65.31
2023-03-30T17:19:15.346Z,65.92
2023-03-30T17:21:43.867Z,66.20
2023-03-30T17:24:16.958Z,66.31
2023-03-30T17:26:44.576Z,66.56
2023-03-30T17:29:15.020Z,66.32
2023-03-30T17:31:45.868Z,66.44
2023-03-30T17:34:13.987Z,66.82
2023-03-30T17:36:41.909Z,66.54
2023-03-30T17:39:13.235Z,66.61
2023-03-30T17:41:41.235Z,66.45
2023-03-30T17:44:09.457Z,66.79
2023-03-30T17:46:37.125Z,67.56
2023-03-30T17:49:04.563Z,67.47
2023-03-30T17:51:31.937Z,67.13
2023-03-30T17:53:59.321Z,67.57
2023-03-30T17:56:26.795Z,67.51
2023-03-30T17:58:54.156Z,67.72
2023-03-30T18:01:21.564Z,67.15
2023-03-30T18:03:49.188Z,67.24
2023-03-30T18:06:17.104Z,67.09
2023-03-30T18:08:44.550Z,67.45
2023-03-30T18:11:11.981Z,67.46
2023-03-30T18:13:39.336Z,67.77
2023-03-30T18:16:07.029Z,67.54
2023-03-30T18:18:34.556Z,67.47
2023-03-30T18:21:04.627Z,67.13
2023-03-30T18:23:34.435Z,67.16
2023-03-30T18:26:08.328Z,67.44
2023-03-30T18:28:40.530Z,67.27
2023-03-30T18:31:08.948Z,67.37
2023-03-30T18:33:36.603Z,67.29
2023-03-30T18:36:07.556Z,67.69
2023-03-30T18:38:35.894Z,67.80
2023-03-30T18:41:03.479Z,67.85
2023-03-30T18:43:31.072Z,67.67
2023-03-30T18:46:01.745Z,67.54
2023-03-30T18:48:30.621Z,68.10
2023-03-30T18:50:58.479Z,68.47
2023-03-30T18:53:28.420Z,68.41
2023-03-30T18:56:00.333Z,68.74
2023-03-30T18:58:30.504Z,68.46
2023-03-30T19:00:58.034Z,68.81
2023-03-30T19:03:33.124Z,68.93
2023-03-30T19:06:01.035Z,68.76
2023-03-30T19:08:28.986Z,68.87
2023-03-30T19:10:57.829Z,68.84
2023-03-30T19:13:26.544Z,68.93
2023-03-30T19:15:54.968Z,69.18
2023-03-30T19:18:22.451Z,69.12
2023-03-30T19:20:51.024Z,69.29
2023-03-30T19:23:21.711Z,69.08
2023-03-30T19:25:49.548Z,69.34
2023-03-30T19:28:17.524Z,69.34
2023-03-30T19:30:45.453Z,69.26
2023-03-30T19:33:16.525Z,69.14
2023-03-30T19:35:45.354Z,69.63
2023-03-30T19:38:14.093Z,69.79
2023-03-30T19:40:41.802Z,69.76
2023-03-30T19:43:09.756Z,70.03
2023-03-30T19:45:37.711Z,69.90
2023-03-30T19:48:05.594Z,69.87
2023-03-30T19:50:33.104Z,69.97
2023-03-30T19:53:00.530Z,70.04
2023-03-30T19:55:27.986Z,70.40
2023-03-30T19:57:55.795Z,70.59
2023-03-30T20:00:23.449Z,70.93
2023-03-30T20:02:54.593Z,70.56
2023-03-30T20:05:23.783Z,70.60
2023-03-30T20:07:51.986Z,70.80
2023-03-30T20:10:22.810Z,70.90
2023-03-30T20:12:51.312Z,71.36
2023-03-30T20:15:20.231Z,71.63
2023-03-30T20:17:48.093Z,71.76
2023-03-30T20:20:22.653Z,71.49
2023-03-30T20:22:53.427Z,71.72
2023-03-30T20:25:21.809Z,71.83
2023-03-30T20:27:49.485Z,72.02
2023-03-30T20:30:17.122Z,72.61
2023-03-30T20:32:53.022Z,72.62
2023-03-30T20:35:27.498Z,72.46
2023-03-30T20:37:55.474Z,72.41
2023-03-30T20:40:24.131Z,72.43
2023-03-30T20:42:51.504Z,72.55
2023-03-30T20:45:26.056Z,73.12
2023-03-30T20:47:53.936Z,72.45
2023-03-30T20:50:21.528Z,72.44
2023-03-30T20:52:48.891Z,72.24
2023-03-30T20:55:16.987Z,72.40
2023-03-30T20:57:44.345Z,72.73
2023-03-30T21:00:12.721Z,73.03
2023-03-30T21:02:40.858Z,72.30
2023-03-30T21:05:09.058Z,72.41
2023-03-30T21:07:38.404Z,72.46
2023-03-30T21:10:06.712Z,71.81
2023-03-30T21:12:34.224Z,72.78
2023-03-30T21:15:01.665Z,72.39
2023-03-30T21:17:29.145Z,73.07
2023-03-30T21:19:56.564Z,73.05
2023-03-30T21:22:23.918Z,73.40
2023-03-30T21:25:17.119Z,73.31
2023-03-30T21:27:44.428Z,73.88
2023-03-30T21:30:13.472Z,73.50
2023-03-30T21:32:41.530Z,73.54
2023-03-30T21:35:09.208Z,73.95
2023-03-30T21:37:36.604Z,74.16
2023-03-30T21:40:06.582Z,74.51
2023-03-30T21:42:35.296Z,74.70
2023-03-30T21:45:02.771Z,74.78
2023-03-30T21:47:30.498Z,74.77
2023-03-30T21:49:57.859Z,75.43
2023-03-30T21:52:25.176Z,75.57
2023-03-30T21:54:52.702Z,75.75
2023-03-30T21:57:20.471Z,76.46
2023-03-30T21:59:47.831Z,76.65
2023-03-30T22:02:15.498Z,76.39
2023-03-30T22:04:44.357Z,76.85
2023-03-30T22:07:11.908Z,77.06
2023-03-30T22:09:39.363Z,77.52
2023-03-30T22:12:07.694Z,77.22
2023-03-30T22:14:35.696Z,76.87
2023-03-30T22:17:03.559Z,77.30
2023-03-30T22:19:32.018Z,78.02
2023-03-30T22:21:59.932Z,78.56
2023-03-30T22:24:27.448Z,77.93
2023-03-30T22:26:54.802Z,78.41
2023-03-30T22:29:23.274Z,78.12
2023-03-30T22:31:52.892Z,78.33
2023-03-30T22:34:21.032Z,79.25
2023-03-30T22:36:48.427Z,79.06
2023-03-30T22:39:16.701Z,78.83
2023-03-30T22:41:44.035Z,79.80
2023-03-30T22:44:11.390Z,79.65
2023-03-30T22:46:38.930Z,80.27
2023-03-30T22:49:06.236Z,79.52
2023-03-30T22:51:34.112Z,80.03
2023-03-30T22:54:01.501Z,80.38
2023-03-30T22:56:29.516Z,80.69
2023-03-30T22:58:58.839Z,80.86
2023-03-30T23:01:29.114Z,81.29
2023-03-30T23:03:59.513Z,81.17
2023-03-30T23:06:27.213Z,80.67
2023-03-30T23:08:54.627Z,80.70
2023-03-30T23:11:22.065Z,80.75
2023-03-30T23:13:49.926Z,80.98
2023-03-30T23:16:17.500Z,80.56
2023-03-30T23:18:44.904Z,80.71
2023-03-30T23:21:14.196Z,80.60
2023-03-30T23:23:42.068Z,80.44
2023-03-30T23:26:11.018Z,80.77
2023-03-30T23:28:41.343Z,80.25
2023-03-30T23:31:12.063Z,80.23
2023-03-30T23:33:40.534Z,81.06
2023-03-30T23:36:09.557Z,80.94
2023-03-30T23:38:37.794Z,81.52
2023-03-30T23:41:06.372Z,81.83
2023-03-30T23:43:33.770Z,82.13
2023-03-30T23:46:01.191Z,81.82
2023-03-30T23:48:28.787Z,80.77
2023-03-30T23:50:57.172Z,80.10
2023-03-30T23:53:26.629Z,80.32
2023-03-30T23:55:54.756Z,80.66
2023-03-30T23:58:22.374Z,81.08
